Aviation Digital Data Service (ADDS)

Output produced by METARs form (1819 UTC 19 August 2019)
found at http://www.aviationweather.gov/metar/data/
 
METAR text: LGKR 191750Z 28002KT CAVOK 27/18 Q1015 NOSIG
Conditions at: LGKR (IOANNIS KAPODIST, GR) observed 1750 UTC 19 August 2019
Temperature: 27.0°C (81°F)
Dewpoint: 18.0°C (64°F) [RH = 58%]
Pressure (altimeter): 29.97 inches Hg (1015.0 mb)
Winds: from the W (280 degrees) at 2 MPH (2 knots; 1.0 m/s)
Visibility: 6 or more miles (10+ km)
Ceiling: ceiling and visibility are OK
Clouds: unknown
Weather: no significant weather observed at this time

METAR text: LGKR 191720Z 27005KT CAVOK 28/17 Q1014 NOSIG
Conditions at: LGKR (IOANNIS KAPODIST, GR) observed 1720 UTC 19 August 2019
Temperature: 28.0°C (82°F)
Dewpoint: 17.0°C (63°F) [RH = 51%]
Pressure (altimeter): 29.94 inches Hg (1014.0 mb)
Winds: from the W (270 degrees) at 6 MPH (5 knots; 2.6 m/s)
Visibility: 6 or more miles (10+ km)
Ceiling: ceiling and visibility are OK
Clouds: unknown
Weather: no significant weather observed at this time

METAR text: LGKR 191650Z 26005KT CAVOK 29/17 Q1014 NOSIG
Conditions at: LGKR (IOANNIS KAPODIST, GR) observed 1650 UTC 19 August 2019
Temperature: 29.0°C (84°F)
Dewpoint: 17.0°C (63°F) [RH = 48%]
Pressure (altimeter): 29.94 inches Hg (1014.0 mb)
Winds: from the W (260 degrees) at 6 MPH (5 knots; 2.6 m/s)
Visibility: 6 or more miles (10+ km)
Ceiling: ceiling and visibility are OK
Clouds: unknown
Weather: no significant weather observed at this time

METAR text: LGKR 191620Z 27005KT CAVOK 30/15 Q1015 NOSIG
Conditions at: LGKR (IOANNIS KAPODIST, GR) observed 1620 UTC 19 August 2019
Temperature: 30.0°C (86°F)
Dewpoint: 15.0°C (59°F) [RH = 40%]
Pressure (altimeter): 29.97 inches Hg (1015.0 mb)
Winds: from the W (270 degrees) at 6 MPH (5 knots; 2.6 m/s)
Visibility: 6 or more miles (10+ km)
Ceiling: ceiling and visibility are OK
Clouds: unknown
Weather: no significant weather observed at this time

METAR text: LGKR 191550Z 27008KT CAVOK 31/15 Q1015 NOSIG
Conditions at: LGKR (IOANNIS KAPODIST, GR) observed 1550 UTC 19 August 2019
Temperature: 31.0°C (88°F)
Dewpoint: 15.0°C (59°F) [RH = 38%]
Pressure (altimeter): 29.97 inches Hg (1015.0 mb)
Winds: from the W (270 degrees) at 9 MPH (8 knots; 4.1 m/s)
Visibility: 6 or more miles (10+ km)
Ceiling: ceiling and visibility are OK
Clouds: unknown
Weather: no significant weather observed at this time

METAR text: LGKR 191520Z 26008KT CAVOK 31/15 Q1015 NOSIG
Conditions at: LGKR (IOANNIS KAPODIST, GR) observed 1520 UTC 19 August 2019
Temperature: 31.0°C (88°F)
Dewpoint: 15.0°C (59°F) [RH = 38%]
Pressure (altimeter): 29.97 inches Hg (1015.0 mb)
Winds: from the W (260 degrees) at 9 MPH (8 knots; 4.1 m/s)
Visibility: 6 or more miles (10+ km)
Ceiling: ceiling and visibility are OK
Clouds: unknown
Weather: no significant weather observed at this time

METAR text: LGKR 191450Z 26010KT CAVOK 31/15 Q1015 NOSIG
Conditions at: LGKR (IOANNIS KAPODIST, GR) observed 1450 UTC 19 August 2019
Temperature: 31.0°C (88°F)
Dewpoint: 15.0°C (59°F) [RH = 38%]
Pressure (altimeter): 29.97 inches Hg (1015.0 mb)
Winds: from the W (260 degrees) at 12 MPH (10 knots; 5.1 m/s)
Visibility: 6 or more miles (10+ km)
Ceiling: ceiling and visibility are OK
Clouds: unknown
Weather: no significant weather observed at this time

METAR text: LGKR 191420Z 25010KT CAVOK 31/15 Q1015 NOSIG
Conditions at: LGKR (IOANNIS KAPODIST, GR) observed 1420 UTC 19 August 2019
Temperature: 31.0°C (88°F)
Dewpoint: 15.0°C (59°F) [RH = 38%]
Pressure (altimeter): 29.97 inches Hg (1015.0 mb)
Winds: from the WSW (250 degrees) at 12 MPH (10 knots; 5.1 m/s)
Visibility: 6 or more miles (10+ km)
Ceiling: ceiling and visibility are OK
Clouds: unknown
Weather: no significant weather observed at this time

METAR text: LGKR 191350Z 26013KT CAVOK 31/15 Q1015 NOSIG
Conditions at: LGKR (IOANNIS KAPODIST, GR) observed 1350 UTC 19 August 2019
Temperature: 31.0°C (88°F)
Dewpoint: 15.0°C (59°F) [RH = 38%]
Pressure (altimeter): 29.97 inches Hg (1015.0 mb)
Winds: from the W (260 degrees) at 15 MPH (13 knots; 6.7 m/s)
Visibility: 6 or more miles (10+ km)
Ceiling: ceiling and visibility are OK
Clouds: unknown
Weather: no significant weather observed at this time

METAR text: LGKR 191320Z 25010KT CAVOK 32/17 Q1015 NOSIG
Conditions at: LGKR (IOANNIS KAPODIST, GR) observed 1320 UTC 19 August 2019
Temperature: 32.0°C (90°F)
Dewpoint: 17.0°C (63°F) [RH = 41%]
Pressure (altimeter): 29.97 inches Hg (1015.0 mb)
Winds: from the WSW (250 degrees) at 12 MPH (10 knots; 5.1 m/s)
Visibility: 6 or more miles (10+ km)
Ceiling: ceiling and visibility are OK
Clouds: unknown
Weather: no significant weather observed at this time

METAR text: LGKR 191250Z 26011KT CAVOK 32/17 Q1015 NOSIG
Conditions at: LGKR (IOANNIS KAPODIST, GR) observed 1250 UTC 19 August 2019
Temperature: 32.0°C (90°F)
Dewpoint: 17.0°C (63°F) [RH = 41%]
Pressure (altimeter): 29.97 inches Hg (1015.0 mb)
Winds: from the W (260 degrees) at 13 MPH (11 knots; 5.7 m/s)
Visibility: 6 or more miles (10+ km)
Ceiling: ceiling and visibility are OK
Clouds: unknown
Weather: no significant weather observed at this time

METAR text: LGKR 191220Z 24010KT CAVOK 32/17 Q1015 NOSIG
Conditions at: LGKR (IOANNIS KAPODIST, GR) observed 1220 UTC 19 August 2019
Temperature: 32.0°C (90°F)
Dewpoint: 17.0°C (63°F) [RH = 41%]
Pressure (altimeter): 29.97 inches Hg (1015.0 mb)
Winds: from the WSW (240 degrees) at 12 MPH (10 knots; 5.1 m/s)
Visibility: 6 or more miles (10+ km)
Ceiling: ceiling and visibility are OK
Clouds: unknown
Weather: no significant weather observed at this time

METAR text: LGKR 191150Z 24009KT CAVOK 32/17 Q1015 NOSIG
Conditions at: LGKR (IOANNIS KAPODIST, GR) observed 1150 UTC 19 August 2019
Temperature: 32.0°C (90°F)
Dewpoint: 17.0°C (63°F) [RH = 41%]
Pressure (altimeter): 29.97 inches Hg (1015.0 mb)
Winds: from the WSW (240 degrees) at 10 MPH (9 knots; 4.6 m/s)
Visibility: 6 or more miles (10+ km)
Ceiling: ceiling and visibility are OK
Clouds: unknown
Weather: no significant weather observed at this time

METAR text: LGKR 191120Z VRB03KT CAVOK 34/19 Q1015 NOSIG
Conditions at: LGKR (IOANNIS KAPODIST, GR) observed 1120 UTC 19 August 2019
Temperature: 34.0°C (93°F)
Dewpoint: 19.0°C (66°F) [RH = 41%]
Pressure (altimeter): 29.97 inches Hg (1015.0 mb)
Winds: variable direction winds at 3 MPH (3 knots; 1.5 m/s)
Visibility: 6 or more miles (10+ km)
Ceiling: ceiling and visibility are OK
Clouds: unknown
Weather: no significant weather observed at this time

METAR text: LGKR 191050Z 14006KT CAVOK 34/19 Q1015 NOSIG
Conditions at: LGKR (IOANNIS KAPODIST, GR) observed 1050 UTC 19 August 2019
Temperature: 34.0°C (93°F)
Dewpoint: 19.0°C (66°F) [RH = 41%]
Pressure (altimeter): 29.97 inches Hg (1015.0 mb)
Winds: from the SE (140 degrees) at 7 MPH (6 knots; 3.1 m/s)
Visibility: 6 or more miles (10+ km)
Ceiling: ceiling and visibility are OK
Clouds: unknown
Weather: no significant weather observed at this time

METAR text: LGKR 191020Z 14006KT CAVOK 32/19 Q1015 NOSIG
Conditions at: LGKR (IOANNIS KAPODIST, GR) observed 1020 UTC 19 August 2019
Temperature: 32.0°C (90°F)
Dewpoint: 19.0°C (66°F) [RH = 46%]
Pressure (altimeter): 29.97 inches Hg (1015.0 mb)
Winds: from the SE (140 degrees) at 7 MPH (6 knots; 3.1 m/s)
Visibility: 6 or more miles (10+ km)
Ceiling: ceiling and visibility are OK
Clouds: unknown
Weather: no significant weather observed at this time

METAR text: LGKR 190950Z 14005KT CAVOK 31/19 Q1015 NOSIG
Conditions at: LGKR (IOANNIS KAPODIST, GR) observed 0950 UTC 19 August 2019
Temperature: 31.0°C (88°F)
Dewpoint: 19.0°C (66°F) [RH = 49%]
Pressure (altimeter): 29.97 inches Hg (1015.0 mb)
Winds: from the SE (140 degrees) at 6 MPH (5 knots; 2.6 m/s)
Visibility: 6 or more miles (10+ km)
Ceiling: ceiling and visibility are OK
Clouds: unknown
Weather: no significant weather observed at this time

METAR text: LGKR 190920Z 14005KT CAVOK 30/18 Q1015 NOSIG
Conditions at: LGKR (IOANNIS KAPODIST, GR) observed 0920 UTC 19 August 2019
Temperature: 30.0°C (86°F)
Dewpoint: 18.0°C (64°F) [RH = 49%]
Pressure (altimeter): 29.97 inches Hg (1015.0 mb)
Winds: from the SE (140 degrees) at 6 MPH (5 knots; 2.6 m/s)
Visibility: 6 or more miles (10+ km)
Ceiling: ceiling and visibility are OK
Clouds: unknown
Weather: no significant weather observed at this time

METAR text: LGKR 190850Z 15005KT CAVOK 30/18 Q1015 NOSIG
Conditions at: LGKR (IOANNIS KAPODIST, GR) observed 0850 UTC 19 August 2019
Temperature: 30.0°C (86°F)
Dewpoint: 18.0°C (64°F) [RH = 49%]
Pressure (altimeter): 29.97 inches Hg (1015.0 mb)
Winds: from the SSE (150 degrees) at 6 MPH (5 knots; 2.6 m/s)
Visibility: 6 or more miles (10+ km)
Ceiling: ceiling and visibility are OK
Clouds: unknown
Weather: no significant weather observed at this time

METAR text: LGKR 190820Z 14004KT CAVOK 28/18 Q1015 NOSIG
Conditions at: LGKR (IOANNIS KAPODIST, GR) observed 0820 UTC 19 August 2019
Temperature: 28.0°C (82°F)
Dewpoint: 18.0°C (64°F) [RH = 55%]
Pressure (altimeter): 29.97 inches Hg (1015.0 mb)
Winds: from the SE (140 degrees) at 5 MPH (4 knots; 2.1 m/s)
Visibility: 6 or more miles (10+ km)
Ceiling: ceiling and visibility are OK
Clouds: unknown
Weather: no significant weather observed at this time

METAR text: LGKR 190750Z 15005KT CAVOK 27/18 Q1015 NOSIG
Conditions at: LGKR (IOANNIS KAPODIST, GR) observed 0750 UTC 19 August 2019
Temperature: 27.0°C (81°F)
Dewpoint: 18.0°C (64°F) [RH = 58%]
Pressure (altimeter): 29.97 inches Hg (1015.0 mb)
Winds: from the SSE (150 degrees) at 6 MPH (5 knots; 2.6 m/s)
Visibility: 6 or more miles (10+ km)
Ceiling: ceiling and visibility are OK
Clouds: unknown
Weather: no significant weather observed at this time

METAR text: LGKR 190720Z 15003KT CAVOK 27/18 Q1015 NOSIG
Conditions at: LGKR (IOANNIS KAPODIST, GR) observed 0720 UTC 19 August 2019
Temperature: 27.0°C (81°F)
Dewpoint: 18.0°C (64°F) [RH = 58%]
Pressure (altimeter): 29.97 inches Hg (1015.0 mb)
Winds: from the SSE (150 degrees) at 3 MPH (3 knots; 1.5 m/s)
Visibility: 6 or more miles (10+ km)
Ceiling: ceiling and visibility are OK
Clouds: unknown
Weather: no significant weather observed at this time

METAR text: LGKR 190650Z 00000KT CAVOK 26/18 Q1015 NOSIG
Conditions at: LGKR (IOANNIS KAPODIST, GR) observed 0650 UTC 19 August 2019
Temperature: 26.0°C (79°F)
Dewpoint: 18.0°C (64°F) [RH = 61%]
Pressure (altimeter): 29.97 inches Hg (1015.0 mb)
Winds: calm
Visibility: 6 or more miles (10+ km)
Ceiling: ceiling and visibility are OK
Clouds: unknown
Weather: no significant weather observed at this time

METAR text: LGKR 190620Z 00000KT CAVOK 24/17 Q1015 NOSIG
Conditions at: LGKR (IOANNIS KAPODIST, GR) observed 0620 UTC 19 August 2019
Temperature: 24.0°C (75°F)
Dewpoint: 17.0°C (63°F) [RH = 65%]
Pressure (altimeter): 29.97 inches Hg (1015.0 mb)
Winds: calm
Visibility: 6 or more miles (10+ km)
Ceiling: ceiling and visibility are OK
Clouds: unknown
Weather: no significant weather observed at this time

METAR text: LGKR 190550Z 00000KT CAVOK 23/17 Q1015 NOSIG
Conditions at: LGKR (IOANNIS KAPODIST, GR) observed 0550 UTC 19 August 2019
Temperature: 23.0°C (73°F)
Dewpoint: 17.0°C (63°F) [RH = 69%]
Pressure (altimeter): 29.97 inches Hg (1015.0 mb)
Winds: calm
Visibility: 6 or more miles (10+ km)
Ceiling: ceiling and visibility are OK
Clouds: unknown
Weather: no significant weather observed at this time

METAR text: LGKR 190520Z 00000KT CAVOK 21/17 Q1015 NOSIG
Conditions at: LGKR (IOANNIS KAPODIST, GR) observed 0520 UTC 19 August 2019
Temperature: 21.0°C (70°F)
Dewpoint: 17.0°C (63°F) [RH = 78%]
Pressure (altimeter): 29.97 inches Hg (1015.0 mb)
Winds: calm
Visibility: 6 or more miles (10+ km)
Ceiling: ceiling and visibility are OK
Clouds: unknown
Weather: no significant weather observed at this time

METAR text: LGKR 190450Z 00000KT CAVOK 20/17 Q1015 NOSIG
Conditions at: LGKR (IOANNIS KAPODIST, GR) observed 0450 UTC 19 August 2019
Temperature: 20.0°C (68°F)
Dewpoint: 17.0°C (63°F) [RH = 83%]
Pressure (altimeter): 29.97 inches Hg (1015.0 mb)
Winds: calm
Visibility: 6 or more miles (10+ km)
Ceiling: ceiling and visibility are OK
Clouds: unknown
Weather: no significant weather observed at this time

METAR text: LGKR 190420Z 26002KT CAVOK 20/17 Q1015 NOSIG
Conditions at: LGKR (IOANNIS KAPODIST, GR) observed 0420 UTC 19 August 2019
Temperature: 20.0°C (68°F)
Dewpoint: 17.0°C (63°F) [RH = 83%]
Pressure (altimeter): 29.97 inches Hg (1015.0 mb)
Winds: from the W (260 degrees) at 2 MPH (2 knots; 1.0 m/s)
Visibility: 6 or more miles (10+ km)
Ceiling: ceiling and visibility are OK
Clouds: unknown
Weather: no significant weather observed at this time

METAR text: LGKR 190350Z VRB02KT CAVOK 20/18 Q1015 NOSIG
Conditions at: LGKR (IOANNIS KAPODIST, GR) observed 0350 UTC 19 August 2019
Temperature: 20.0°C (68°F)
Dewpoint: 18.0°C (64°F) [RH = 88%]
Pressure (altimeter): 29.97 inches Hg (1015.0 mb)
Winds: variable direction winds at 2 MPH (2 knots; 1.0 m/s)
Visibility: 6 or more miles (10+ km)
Ceiling: ceiling and visibility are OK
Clouds: unknown
Weather: no significant weather observed at this time

METAR text: LGKR 190320Z 27003KT CAVOK 21/17 Q1015 NOSIG
Conditions at: LGKR (IOANNIS KAPODIST, GR) observed 0320 UTC 19 August 2019
Temperature: 21.0°C (70°F)
Dewpoint: 17.0°C (63°F) [RH = 78%]
Pressure (altimeter): 29.97 inches Hg (1015.0 mb)
Winds: from the W (270 degrees) at 3 MPH (3 knots; 1.5 m/s)
Visibility: 6 or more miles (10+ km)
Ceiling: ceiling and visibility are OK
Clouds: unknown
Weather: no significant weather observed at this time

METAR text: LGKR 190250Z 27003KT CAVOK 21/17 Q1015 NOSIG
Conditions at: LGKR (IOANNIS KAPODIST, GR) observed 0250 UTC 19 August 2019
Temperature: 21.0°C (70°F)
Dewpoint: 17.0°C (63°F) [RH = 78%]
Pressure (altimeter): 29.97 inches Hg (1015.0 mb)
Winds: from the W (270 degrees) at 3 MPH (3 knots; 1.5 m/s)
Visibility: 6 or more miles (10+ km)
Ceiling: ceiling and visibility are OK
Clouds: unknown
Weather: no significant weather observed at this time

METAR text: LGKR 190220Z 26002KT CAVOK 21/17 Q1015 NOSIG
Conditions at: LGKR (IOANNIS KAPODIST, GR) observed 0220 UTC 19 August 2019
Temperature: 21.0°C (70°F)
Dewpoint: 17.0°C (63°F) [RH = 78%]
Pressure (altimeter): 29.97 inches Hg (1015.0 mb)
Winds: from the W (260 degrees) at 2 MPH (2 knots; 1.0 m/s)
Visibility: 6 or more miles (10+ km)
Ceiling: ceiling and visibility are OK
Clouds: unknown
Weather: no significant weather observed at this time

METAR text: LGKR 190150Z 26002KT CAVOK 21/17 Q1015 NOSIG
Conditions at: LGKR (IOANNIS KAPODIST, GR) observed 0150 UTC 19 August 2019
Temperature: 21.0°C (70°F)
Dewpoint: 17.0°C (63°F) [RH = 78%]
Pressure (altimeter): 29.97 inches Hg (1015.0 mb)
Winds: from the W (260 degrees) at 2 MPH (2 knots; 1.0 m/s)
Visibility: 6 or more miles (10+ km)
Ceiling: ceiling and visibility are OK
Clouds: unknown
Weather: no significant weather observed at this time

METAR text: LGKR 190120Z 26002KT CAVOK 21/17 Q1015 NOSIG
Conditions at: LGKR (IOANNIS KAPODIST, GR) observed 0120 UTC 19 August 2019
Temperature: 21.0°C (70°F)
Dewpoint: 17.0°C (63°F) [RH = 78%]
Pressure (altimeter): 29.97 inches Hg (1015.0 mb)
Winds: from the W (260 degrees) at 2 MPH (2 knots; 1.0 m/s)
Visibility: 6 or more miles (10+ km)
Ceiling: ceiling and visibility are OK
Clouds: unknown
Weather: no significant weather observed at this time

METAR text: LGKR 190050Z 27002KT CAVOK 22/17 Q1014 NOSIG
Conditions at: LGKR (IOANNIS KAPODIST, GR) observed 0050 UTC 19 August 2019
Temperature: 22.0°C (72°F)
Dewpoint: 17.0°C (63°F) [RH = 73%]
Pressure (altimeter): 29.94 inches Hg (1014.0 mb)
Winds: from the W (270 degrees) at 2 MPH (2 knots; 1.0 m/s)
Visibility: 6 or more miles (10+ km)
Ceiling: ceiling and visibility are OK
Clouds: unknown
Weather: no significant weather observed at this time

METAR text: LGKR 190020Z 27003KT CAVOK 22/17 Q1015 NOSIG
Conditions at: LGKR (IOANNIS KAPODIST, GR) observed 0020 UTC 19 August 2019
Temperature: 22.0°C (72°F)
Dewpoint: 17.0°C (63°F) [RH = 73%]
Pressure (altimeter): 29.97 inches Hg (1015.0 mb)
Winds: from the W (270 degrees) at 3 MPH (3 knots; 1.5 m/s)
Visibility: 6 or more miles (10+ km)
Ceiling: ceiling and visibility are OK
Clouds: unknown
Weather: no significant weather observed at this time

METAR text: LGKR 182350Z 27003KT CAVOK 22/17 Q1015 NOSIG
Conditions at: LGKR (IOANNIS KAPODIST, GR) observed 2350 UTC 18 August 2019
Temperature: 22.0°C (72°F)
Dewpoint: 17.0°C (63°F) [RH = 73%]
Pressure (altimeter): 29.97 inches Hg (1015.0 mb)
Winds: from the W (270 degrees) at 3 MPH (3 knots; 1.5 m/s)
Visibility: 6 or more miles (10+ km)
Ceiling: ceiling and visibility are OK
Clouds: unknown
Weather: no significant weather observed at this time

METAR text: LGKR 182320Z 25002KT CAVOK 22/17 Q1015 NOSIG
Conditions at: LGKR (IOANNIS KAPODIST, GR) observed 2320 UTC 18 August 2019
Temperature: 22.0°C (72°F)
Dewpoint: 17.0°C (63°F) [RH = 73%]
Pressure (altimeter): 29.97 inches Hg (1015.0 mb)
Winds: from the WSW (250 degrees) at 2 MPH (2 knots; 1.0 m/s)
Visibility: 6 or more miles (10+ km)
Ceiling: ceiling and visibility are OK
Clouds: unknown
Weather: no significant weather observed at this time

METAR text: LGKR 182250Z 27003KT CAVOK 23/17 Q1015 NOSIG
Conditions at: LGKR (IOANNIS KAPODIST, GR) observed 2250 UTC 18 August 2019
Temperature: 23.0°C (73°F)
Dewpoint: 17.0°C (63°F) [RH = 69%]
Pressure (altimeter): 29.97 inches Hg (1015.0 mb)
Winds: from the W (270 degrees) at 3 MPH (3 knots; 1.5 m/s)
Visibility: 6 or more miles (10+ km)
Ceiling: ceiling and visibility are OK
Clouds: unknown
Weather: no significant weather observed at this time

METAR text: LGKR 182220Z 29002KT CAVOK 23/18 Q1015 NOSIG
Conditions at: LGKR (IOANNIS KAPODIST, GR) observed 2220 UTC 18 August 2019
Temperature: 23.0°C (73°F)
Dewpoint: 18.0°C (64°F) [RH = 73%]
Pressure (altimeter): 29.97 inches Hg (1015.0 mb)
Winds: from the WNW (290 degrees) at 2 MPH (2 knots; 1.0 m/s)
Visibility: 6 or more miles (10+ km)
Ceiling: ceiling and visibility are OK
Clouds: unknown
Weather: no significant weather observed at this time

METAR text: LGKR 182150Z 26002KT CAVOK 23/18 Q1014 NOSIG
Conditions at: LGKR (IOANNIS KAPODIST, GR) observed 2150 UTC 18 August 2019
Temperature: 23.0°C (73°F)
Dewpoint: 18.0°C (64°F) [RH = 73%]
Pressure (altimeter): 29.94 inches Hg (1014.0 mb)
Winds: from the W (260 degrees) at 2 MPH (2 knots; 1.0 m/s)
Visibility: 6 or more miles (10+ km)
Ceiling: ceiling and visibility are OK
Clouds: unknown
Weather: no significant weather observed at this time

METAR text: LGKR 182120Z 00000KT CAVOK 23/18 Q1015 NOSIG
Conditions at: LGKR (IOANNIS KAPODIST, GR) observed 2120 UTC 18 August 2019
Temperature: 23.0°C (73°F)
Dewpoint: 18.0°C (64°F) [RH = 73%]
Pressure (altimeter): 29.97 inches Hg (1015.0 mb)
Winds: calm
Visibility: 6 or more miles (10+ km)
Ceiling: ceiling and visibility are OK
Clouds: unknown
Weather: no significant weather observed at this time

METAR text: LGKR 182050Z 26003KT CAVOK 24/18 Q1015 NOSIG
Conditions at: LGKR (IOANNIS KAPODIST, GR) observed 2050 UTC 18 August 2019
Temperature: 24.0°C (75°F)
Dewpoint: 18.0°C (64°F) [RH = 69%]
Pressure (altimeter): 29.97 inches Hg (1015.0 mb)
Winds: from the W (260 degrees) at 3 MPH (3 knots; 1.5 m/s)
Visibility: 6 or more miles (10+ km)
Ceiling: ceiling and visibility are OK
Clouds: unknown
Weather: no significant weather observed at this time

METAR text: LGKR 182020Z 21002KT CAVOK 24/18 Q1015 NOSIG
Conditions at: LGKR (IOANNIS KAPODIST, GR) observed 2020 UTC 18 August 2019
Temperature: 24.0°C (75°F)
Dewpoint: 18.0°C (64°F) [RH = 69%]
Pressure (altimeter): 29.97 inches Hg (1015.0 mb)
Winds: from the SSW (210 degrees) at 2 MPH (2 knots; 1.0 m/s)
Visibility: 6 or more miles (10+ km)
Ceiling: ceiling and visibility are OK
Clouds: unknown
Weather: no significant weather observed at this time

METAR text: LGKR 181950Z 00000KT CAVOK 25/18 Q1015 NOSIG
Conditions at: LGKR (IOANNIS KAPODIST, GR) observed 1950 UTC 18 August 2019
Temperature: 25.0°C (77°F)
Dewpoint: 18.0°C (64°F) [RH = 65%]
Pressure (altimeter): 29.97 inches Hg (1015.0 mb)
Winds: calm
Visibility: 6 or more miles (10+ km)
Ceiling: ceiling and visibility are OK
Clouds: unknown
Weather: no significant weather observed at this time

METAR text: LGKR 181920Z 23002KT CAVOK 26/17 Q1014 NOSIG
Conditions at: LGKR (IOANNIS KAPODIST, GR) observed 1920 UTC 18 August 2019
Temperature: 26.0°C (79°F)
Dewpoint: 17.0°C (63°F) [RH = 58%]
Pressure (altimeter): 29.94 inches Hg (1014.0 mb)
Winds: from the SW (230 degrees) at 2 MPH (2 knots; 1.0 m/s)
Visibility: 6 or more miles (10+ km)
Ceiling: ceiling and visibility are OK
Clouds: unknown
Weather: no significant weather observed at this time

METAR text: LGKR 181850Z 21002KT CAVOK 27/17 Q1014 NOSIG
Conditions at: LGKR (IOANNIS KAPODIST, GR) observed 1850 UTC 18 August 2019
Temperature: 27.0°C (81°F)
Dewpoint: 17.0°C (63°F) [RH = 54%]
Pressure (altimeter): 29.94 inches Hg (1014.0 mb)
Winds: from the SSW (210 degrees) at 2 MPH (2 knots; 1.0 m/s)
Visibility: 6 or more miles (10+ km)
Ceiling: ceiling and visibility are OK
Clouds: unknown
Weather: no significant weather observed at this time

METAR text: LGKR 181820Z 00000KT CAVOK 27/19 Q1014 NOSIG
Conditions at: LGKR (IOANNIS KAPODIST, GR) observed 1820 UTC 18 August 2019
Temperature: 27.0°C (81°F)
Dewpoint: 19.0°C (66°F) [RH = 62%]
Pressure (altimeter): 29.94 inches Hg (1014.0 mb)
Winds: calm
Visibility: 6 or more miles (10+ km)
Ceiling: ceiling and visibility are OK
Clouds: unknown
Weather: no significant weather observed at this time

METAR text: LGKR 181750Z 00000KT CAVOK 27/19 Q1014 NOSIG
Conditions at: LGKR (IOANNIS KAPODIST, GR) observed 1750 UTC 18 August 2019
Temperature: 27.0°C (81°F)
Dewpoint: 19.0°C (66°F) [RH = 62%]
Pressure (altimeter): 29.94 inches Hg (1014.0 mb)
Winds: calm
Visibility: 6 or more miles (10+ km)
Ceiling: ceiling and visibility are OK
Clouds: unknown
Weather: no significant weather observed at this time

METAR text: LGKR 181720Z 22004KT CAVOK 28/17 Q1014 NOSIG
Conditions at: LGKR (IOANNIS KAPODIST, GR) observed 1720 UTC 18 August 2019
Temperature: 28.0°C (82°F)
Dewpoint: 17.0°C (63°F) [RH = 51%]
Pressure (altimeter): 29.94 inches Hg (1014.0 mb)
Winds: from the SW (220 degrees) at 5 MPH (4 knots; 2.1 m/s)
Visibility: 6 or more miles (10+ km)
Ceiling: ceiling and visibility are OK
Clouds: unknown
Weather: no significant weather observed at this time

METAR text: LGKR 181650Z 22006KT 9999 FEW030 29/17 Q1014 NOSIG
Conditions at: LGKR (IOANNIS KAPODIST, GR) observed 1650 UTC 18 August 2019
Temperature: 29.0°C (84°F)
Dewpoint: 17.0°C (63°F) [RH = 48%]
Pressure (altimeter): 29.94 inches Hg (1014.0 mb)
Winds: from the SW (220 degrees) at 7 MPH (6 knots; 3.1 m/s)
Visibility: 6 or more miles (10+ km)
Ceiling: at least 12,000 feet AGL
Clouds: few clouds at 3000 feet AGL
Weather: no significant weather observed at this time

METAR text: LGKR 181620Z 24006KT 9999 FEW030 31/17 Q1014 NOSIG
Conditions at: LGKR (IOANNIS KAPODIST, GR) observed 1620 UTC 18 August 2019
Temperature: 31.0°C (88°F)
Dewpoint: 17.0°C (63°F) [RH = 43%]
Pressure (altimeter): 29.94 inches Hg (1014.0 mb)
Winds: from the WSW (240 degrees) at 7 MPH (6 knots; 3.1 m/s)
Visibility: 6 or more miles (10+ km)
Ceiling: at least 12,000 feet AGL
Clouds: few clouds at 3000 feet AGL
Weather: no significant weather observed at this time

METAR text: LGKR 181550Z 28009KT 9999 FEW030 31/17 Q1014 NOSIG
Conditions at: LGKR (IOANNIS KAPODIST, GR) observed 1550 UTC 18 August 2019
Temperature: 31.0°C (88°F)
Dewpoint: 17.0°C (63°F) [RH = 43%]
Pressure (altimeter): 29.94 inches Hg (1014.0 mb)
Winds: from the W (280 degrees) at 10 MPH (9 knots; 4.6 m/s)
Visibility: 6 or more miles (10+ km)
Ceiling: at least 12,000 feet AGL
Clouds: few clouds at 3000 feet AGL
Weather: no significant weather observed at this time

METAR text: LGKR 181520Z 26008KT 9999 FEW030 31/17 Q1014 NOSIG
Conditions at: LGKR (IOANNIS KAPODIST, GR) observed 1520 UTC 18 August 2019
Temperature: 31.0°C (88°F)
Dewpoint: 17.0°C (63°F) [RH = 43%]
Pressure (altimeter): 29.94 inches Hg (1014.0 mb)
Winds: from the W (260 degrees) at 9 MPH (8 knots; 4.1 m/s)
Visibility: 6 or more miles (10+ km)
Ceiling: at least 12,000 feet AGL
Clouds: few clouds at 3000 feet AGL
Weather: no significant weather observed at this time

METAR text: LGKR 181450Z 24009KT 9999 FEW030 31/17 Q1014 NOSIG
Conditions at: LGKR (IOANNIS KAPODIST, GR) observed 1450 UTC 18 August 2019
Temperature: 31.0°C (88°F)
Dewpoint: 17.0°C (63°F) [RH = 43%]
Pressure (altimeter): 29.94 inches Hg (1014.0 mb)
Winds: from the WSW (240 degrees) at 10 MPH (9 knots; 4.6 m/s)
Visibility: 6 or more miles (10+ km)
Ceiling: at least 12,000 feet AGL
Clouds: few clouds at 3000 feet AGL
Weather: no significant weather observed at this time

METAR text: LGKR 181420Z 24009KT 9999 FEW030 32/15 Q1014 NOSIG
Conditions at: LGKR (IOANNIS KAPODIST, GR) observed 1420 UTC 18 August 2019
Temperature: 32.0°C (90°F)
Dewpoint: 15.0°C (59°F) [RH = 36%]
Pressure (altimeter): 29.94 inches Hg (1014.0 mb)
Winds: from the WSW (240 degrees) at 10 MPH (9 knots; 4.6 m/s)
Visibility: 6 or more miles (10+ km)
Ceiling: at least 12,000 feet AGL
Clouds: few clouds at 3000 feet AGL
Weather: no significant weather observed at this time

METAR text: LGKR 181350Z 25009KT 9999 FEW030 32/15 Q1014 NOSIG
Conditions at: LGKR (IOANNIS KAPODIST, GR) observed 1350 UTC 18 August 2019
Temperature: 32.0°C (90°F)
Dewpoint: 15.0°C (59°F) [RH = 36%]
Pressure (altimeter): 29.94 inches Hg (1014.0 mb)
Winds: from the WSW (250 degrees) at 10 MPH (9 knots; 4.6 m/s)
Visibility: 6 or more miles (10+ km)
Ceiling: at least 12,000 feet AGL
Clouds: few clouds at 3000 feet AGL
Weather: no significant weather observed at this time

METAR text: LGKR 181320Z 25010KT 9999 FEW030 33/14 Q1014 NOSIG
Conditions at: LGKR (IOANNIS KAPODIST, GR) observed 1320 UTC 18 August 2019
Temperature: 33.0°C (91°F)
Dewpoint: 14.0°C (57°F) [RH = 32%]
Pressure (altimeter): 29.94 inches Hg (1014.0 mb)
Winds: from the WSW (250 degrees) at 12 MPH (10 knots; 5.1 m/s)
Visibility: 6 or more miles (10+ km)
Ceiling: at least 12,000 feet AGL
Clouds: few clouds at 3000 feet AGL
Weather: no significant weather observed at this time

METAR text: LGKR 181250Z 20012KT 9999 FEW030 33/14 Q1014 NOSIG
Conditions at: LGKR (IOANNIS KAPODIST, GR) observed 1250 UTC 18 August 2019
Temperature: 33.0°C (91°F)
Dewpoint: 14.0°C (57°F) [RH = 32%]
Pressure (altimeter): 29.94 inches Hg (1014.0 mb)
Winds: from the SSW (200 degrees) at 14 MPH (12 knots; 6.2 m/s)
Visibility: 6 or more miles (10+ km)
Ceiling: at least 12,000 feet AGL
Clouds: few clouds at 3000 feet AGL
Weather: no significant weather observed at this time

METAR text: LGKR 181220Z 20005KT 9999 FEW030 32/14 Q1014 NOSIG
Conditions at: LGKR (IOANNIS KAPODIST, GR) observed 1220 UTC 18 August 2019
Temperature: 32.0°C (90°F)
Dewpoint: 14.0°C (57°F) [RH = 34%]
Pressure (altimeter): 29.94 inches Hg (1014.0 mb)
Winds: from the SSW (200 degrees) at 6 MPH (5 knots; 2.6 m/s)
Visibility: 6 or more miles (10+ km)
Ceiling: at least 12,000 feet AGL
Clouds: few clouds at 3000 feet AGL
Weather: no significant weather observed at this time

METAR text: LGKR 181150Z 15007KT 9999 FEW030 32/14 Q1014 NOSIG
Conditions at: LGKR (IOANNIS KAPODIST, GR) observed 1150 UTC 18 August 2019
Temperature: 32.0°C (90°F)
Dewpoint: 14.0°C (57°F) [RH = 34%]
Pressure (altimeter): 29.94 inches Hg (1014.0 mb)
Winds: from the SSE (150 degrees) at 8 MPH (7 knots; 3.6 m/s)
Visibility: 6 or more miles (10+ km)
Ceiling: at least 12,000 feet AGL
Clouds: few clouds at 3000 feet AGL
Weather: no significant weather observed at this time

METAR text: LGKR 181120Z 14007KT 9999 FEW030 32/11 Q1015 NOSIG
Conditions at: LGKR (IOANNIS KAPODIST, GR) observed 1120 UTC 18 August 2019
Temperature: 32.0°C (90°F)
Dewpoint: 11.0°C (52°F) [RH = 28%]
Pressure (altimeter): 29.97 inches Hg (1015.0 mb)
Winds: from the SE (140 degrees) at 8 MPH (7 knots; 3.6 m/s)
Visibility: 6 or more miles (10+ km)
Ceiling: at least 12,000 feet AGL
Clouds: few clouds at 3000 feet AGL
Weather: no significant weather observed at this time

METAR text: LGKR 181050Z 15006KT 9999 FEW030 32/11 Q1015 NOSIG
Conditions at: LGKR (IOANNIS KAPODIST, GR) observed 1050 UTC 18 August 2019
Temperature: 32.0°C (90°F)
Dewpoint: 11.0°C (52°F) [RH = 28%]
Pressure (altimeter): 29.97 inches Hg (1015.0 mb)
Winds: from the SSE (150 degrees) at 7 MPH (6 knots; 3.1 m/s)
Visibility: 6 or more miles (10+ km)
Ceiling: at least 12,000 feet AGL
Clouds: few clouds at 3000 feet AGL
Weather: no significant weather observed at this time

METAR text: LGKR 181020Z 15007KT CAVOK 31/12 Q1015 NOSIG
Conditions at: LGKR (IOANNIS KAPODIST, GR) observed 1020 UTC 18 August 2019
Temperature: 31.0°C (88°F)
Dewpoint: 12.0°C (54°F) [RH = 31%]
Pressure (altimeter): 29.97 inches Hg (1015.0 mb)
Winds: from the SSE (150 degrees) at 8 MPH (7 knots; 3.6 m/s)
Visibility: 6 or more miles (10+ km)
Ceiling: ceiling and visibility are OK
Clouds: unknown
Weather: no significant weather observed at this time

METAR text: LGKR 180950Z 14007KT CAVOK 31/12 Q1015 NOSIG
Conditions at: LGKR (IOANNIS KAPODIST, GR) observed 0950 UTC 18 August 2019
Temperature: 31.0°C (88°F)
Dewpoint: 12.0°C (54°F) [RH = 31%]
Pressure (altimeter): 29.97 inches Hg (1015.0 mb)
Winds: from the SE (140 degrees) at 8 MPH (7 knots; 3.6 m/s)
Visibility: 6 or more miles (10+ km)
Ceiling: ceiling and visibility are OK
Clouds: unknown
Weather: no significant weather observed at this time

METAR text: LGKR 180920Z 15005KT CAVOK 30/12 Q1015 NOSIG
Conditions at: LGKR (IOANNIS KAPODIST, GR) observed 0920 UTC 18 August 2019
Temperature: 30.0°C (86°F)
Dewpoint: 12.0°C (54°F) [RH = 33%]
Pressure (altimeter): 29.97 inches Hg (1015.0 mb)
Winds: from the SSE (150 degrees) at 6 MPH (5 knots; 2.6 m/s)
Visibility: 6 or more miles (10+ km)
Ceiling: ceiling and visibility are OK
Clouds: unknown
Weather: no significant weather observed at this time

METAR text: LGKR 180850Z 14004KT CAVOK 30/12 Q1015 NOSIG
Conditions at: LGKR (IOANNIS KAPODIST, GR) observed 0850 UTC 18 August 2019
Temperature: 30.0°C (86°F)
Dewpoint: 12.0°C (54°F) [RH = 33%]
Pressure (altimeter): 29.97 inches Hg (1015.0 mb)
Winds: from the SE (140 degrees) at 5 MPH (4 knots; 2.1 m/s)
Visibility: 6 or more miles (10+ km)
Ceiling: ceiling and visibility are OK
Clouds: unknown
Weather: no significant weather observed at this time

METAR text: LGKR 180820Z 16004KT CAVOK 28/15 Q1014 NOSIG
Conditions at: LGKR (IOANNIS KAPODIST, GR) observed 0820 UTC 18 August 2019
Temperature: 28.0°C (82°F)
Dewpoint: 15.0°C (59°F) [RH = 45%]
Pressure (altimeter): 29.94 inches Hg (1014.0 mb)
Winds: from the SSE (160 degrees) at 5 MPH (4 knots; 2.1 m/s)
Visibility: 6 or more miles (10+ km)
Ceiling: ceiling and visibility are OK
Clouds: unknown
Weather: no significant weather observed at this time

METAR text: LGKR 180750Z 19003KT CAVOK 28/15 Q1014 NOSIG
Conditions at: LGKR (IOANNIS KAPODIST, GR) observed 0750 UTC 18 August 2019
Temperature: 28.0°C (82°F)
Dewpoint: 15.0°C (59°F) [RH = 45%]
Pressure (altimeter): 29.94 inches Hg (1014.0 mb)
Winds: from the S (190 degrees) at 3 MPH (3 knots; 1.5 m/s)
Visibility: 6 or more miles (10+ km)
Ceiling: ceiling and visibility are OK
Clouds: unknown
Weather: no significant weather observed at this time

METAR text: LGKR 180720Z 00000KT CAVOK 27/15 Q1014 NOSIG
Conditions at: LGKR (IOANNIS KAPODIST, GR) observed 0720 UTC 18 August 2019
Temperature: 27.0°C (81°F)
Dewpoint: 15.0°C (59°F) [RH = 48%]
Pressure (altimeter): 29.94 inches Hg (1014.0 mb)
Winds: calm
Visibility: 6 or more miles (10+ km)
Ceiling: ceiling and visibility are OK
Clouds: unknown
Weather: no significant weather observed at this time

METAR text: LGKR 180650Z 00000KT CAVOK 26/15 Q1014 NOSIG
Conditions at: LGKR (IOANNIS KAPODIST, GR) observed 0650 UTC 18 August 2019
Temperature: 26.0°C (79°F)
Dewpoint: 15.0°C (59°F) [RH = 51%]
Pressure (altimeter): 29.94 inches Hg (1014.0 mb)
Winds: calm
Visibility: 6 or more miles (10+ km)
Ceiling: ceiling and visibility are OK
Clouds: unknown
Weather: no significant weather observed at this time

METAR text: LGKR 180620Z 00000KT CAVOK 24/17 Q1014 NOSIG
Conditions at: LGKR (IOANNIS KAPODIST, GR) observed 0620 UTC 18 August 2019
Temperature: 24.0°C (75°F)
Dewpoint: 17.0°C (63°F) [RH = 65%]
Pressure (altimeter): 29.94 inches Hg (1014.0 mb)
Winds: calm
Visibility: 6 or more miles (10+ km)
Ceiling: ceiling and visibility are OK
Clouds: unknown
Weather: no significant weather observed at this time

Forecast for: LGKR (IOANNIS KAPODIST, GR)
Text: TAF LGKR 191700Z 1918/2018 26010KT 9999 FEW020
Forecast period: 1800 UTC 19 August 2019 to 1800 UTC 20 August 2019
Forecast type: FROM: standard forecast or significant change
Winds: from the W (260 degrees) at 12 MPH (10 knots; 5.1 m/s)
Visibility: 6 or more miles 10+ km)
Ceiling: at least 12,000 feet AGL
Clouds: few clouds at 2000 feet AGL
Weather: no significant weather forecast for this period
Text: BECMG 1918/1920 VRB05KT
Forecast period: 1800 UTC 19 August 2019 to 1800 UTC 20 August 2019
Forecast type: BECOMING: Conditions expected to become as follows by 2000 UTC 19 August 2019
Winds: variable direction winds at 6 MPH (5 knots; 2.6 m/s)
Visibility: 6 or more miles 10+ km)
Ceiling: at least 12,000 feet AGL
Clouds: few clouds at 2000 feet AGL
Weather: no significant weather forecast for this period